createdAt,value
2023-04-20T00:00:00.000Z,22.65
2023-04-20T00:15:00.000Z,22.14
2023-04-20T00:30:00.000Z,21.33
2023-04-20T00:45:00.000Z,23.66
2023-04-20T01:00:00.000Z,30.04
2023-04-20T01:15:00.000Z,27.25
2023-04-20T01:30:00.000Z,26.44
2023-04-20T01:45:00.000Z,25.46
2023-04-20T02:00:00.000Z,25.99
2023-04-20T02:15:00.000Z,24.12
2023-04-20T02:30:00.000Z,24.44
2023-04-20T02:45:00.000Z,22.88
2023-04-20T03:00:00.000Z,22.07
2023-04-20T03:15:00.000Z,22.76
2023-04-20T03:30:00.000Z,26.99
2023-04-20T03:45:00.000Z,26.8
2023-04-20T04:00:00.000Z,22.39
2023-04-20T04:15:00.000Z,17.67
2023-04-20T04:30:00.000Z,11.59
2023-04-20T04:45:00.000Z,7.67
2023-04-20T05:00:00.000Z,7.44
2023-04-20T05:15:00.000Z,7.14
2023-04-20T05:30:00.000Z,5.61
2023-04-20T05:45:00.000Z,6.95
2023-04-20T06:00:00.000Z,8.14
2023-04-20T06:15:00.000Z,7.55
2023-04-20T06:30:00.000Z,7
2023-04-20T06:45:00.000Z,6.6
2023-04-20T07:00:00.000Z,7.42
2023-04-20T07:15:00.000Z,7.16
2023-04-20T07:30:00.000Z,5.44
2023-04-20T07:45:00.000Z,5.47
2023-04-20T08:00:00.000Z,6.94
2023-04-20T08:15:00.000Z,10.88
2023-04-20T08:30:00.000Z,12.75
2023-04-20T08:45:00.000Z,6.51
2023-04-20T09:00:00.000Z,4.87
2023-04-20T09:15:00.000Z,4.38
2023-04-20T09:30:00.000Z,4.67
2023-04-20T09:45:00.000Z,5.15
2023-04-20T10:00:00.000Z,4.44
2023-04-20T10:15:00.000Z,4.76
2023-04-20T10:30:00.000Z,5.15
2023-04-20T10:45:00.000Z,5
2023-04-20T11:00:00.000Z,5.12
2023-04-20T11:15:00.000Z,5.61
2023-04-20T11:30:00.000Z,8.09
2023-04-20T11:45:00.000Z,7.02
2023-04-20T12:00:00.000Z,8.36
2023-04-20T12:15:00.000Z,9.54
2023-04-20T12:30:00.000Z,15.34
2023-04-20T12:45:00.000Z,18.79
2023-04-20T13:00:00.000Z,12.68
2023-04-20T13:15:00.000Z,12.78
2023-04-20T13:30:00.000Z,15.31
2023-04-20T13:45:00.000Z,18.21
2023-04-20T14:00:00.000Z,17.04
2023-04-20T14:15:00.000Z,16.21
2023-04-20T14:30:00.000Z,22.47
2023-04-20T14:45:00.000Z,20.44
2023-04-20T15:00:00.000Z,22.04
2023-04-20T15:15:00.000Z,20.56
2023-04-20T15:30:00.000Z,21.02
2023-04-20T15:45:00.000Z,26.85
2023-04-20T16:00:00.000Z,34.22
2023-04-20T16:15:00.000Z,27.75
2023-04-20T16:30:00.000Z,29.92
2023-04-20T16:45:00.000Z,20.62
2023-04-20T17:00:00.000Z,23.09
2023-04-20T17:15:00.000Z,21.93
2023-04-20T17:30:00.000Z,22.82
2023-04-20T17:45:00.000Z,26.67
2023-04-20T18:00:00.000Z,31.62
2023-04-20T18:15:00.000Z,31.35
2023-04-20T18:30:00.000Z,28.87
2023-04-20T18:45:00.000Z,31.75
2023-04-20T19:15:00.000Z,29.99
2023-04-20T19:30:00.000Z,27.74
2023-04-20T19:45:00.000Z,28.73
2023-04-20T20:00:00.000Z,28.38
2023-04-20T20:15:00.000Z,31.12
2023-04-20T20:30:00.000Z,33.26
2023-04-20T20:45:00.000Z,37.96
2023-04-20T21:00:00.000Z,40.02
2023-04-20T21:15:00.000Z,42.46
2023-04-20T21:30:00.000Z,46.58
2023-04-20T21:45:00.000Z,47.78
2023-04-20T22:00:00.000Z,48.68
2023-04-20T22:15:00.000Z,48.66
2023-04-20T22:30:00.000Z,47.65
2023-04-20T22:45:00.000Z,47.88
2023-04-20T23:00:00.000Z,46.95
2023-04-20T23:15:00.000Z,45.87
2023-04-20T23:30:00.000Z,42.47
2023-04-20T23:45:00.000Z,41.86
